Thursday, May 05, 2016
16:14 UTC
  |  Log In   |  Register Free
Airport Search:

 Airport
()


FAA data valid effective Mar 31 2016 - May 26 2016 (unless otherwise noted).

 
 
 
 
 
 
 
 
 
 
 
 
 
 
Summary: Tejas Stone Ranch (88xa)

Weather Summary


METAR for 88XA is not available. Closest METAR is for KGYI 24.5 nm SE
KGYI  (24.5 nm SE)   (most recent observation was updated at 51:43 UTC)
051435Z AUTO 00000KT 10SM CLR 17/10 A3013 RMK AO2 T01700101

KF46  (24.7 nm NW)   (most recent observation was updated at 51:45 UTC)
051455Z AUTO 04004KT 10SM CLR 21/10 A3009 RMK AO2 T02100099

TAF for 88XA is not available.
KDAL  (35.0 nm NE)   (most recent observation was updatred at 51:45 UTC)
AMD 051458Z 0515/0612 01006KT P6SM FEW250 FM060300 07004KT P6SM SKC


GlobalAir.com is loading additional information.
 Current Weather at
37
Fog/Mist
West winds at 15 mph
Pressure:
Humidity:
Wind:
Dew Point:
Visibility:
88xa NOAA Radar

Communications Summary


Terminal Procedures Summary


Closest Alternate Airports with Instrument Procedures


Find All Airport Services Find A Hotel Find A Rental Car Find A Golf Course Find A Restaurant $100 Hamburger



FBO's on the Field
FBO Company Facility Photos Services Transportation Aviation Fuel Prices: Prices include tax
Catering Weather Repair Courtesy Rental Type 100LL JetA JetA+ MOGAS 8087
 
Add another FBO Facility Photos Catering Weather Repair Courtesy Rental Type 100LL JetA JetA+ MOGAS 8087
Services Transportation Aviation Fuel Prices: Prices include tax


model-print
model-print
model-print
model-print